Terminal Aerodrome Forecast
Issued by NWS

Home | Current Version | Previous Version | Text Only | Print | Product List | Glossary On
Versions: 1 2 3 4 5 6 7 8 9 10 11 12
939
FTUS46 KSGX 231136
TAFONT
TAF
KONT 231136Z 2312/2418 01007KT P6SM SKC WS015/03025KT
     FM231800 04018G28KT P6SM SKC
     FM232200 02010G18KT P6SM SKC
     FM240200 05006KT P6SM SKC
     FM240800 04020G30KT P6SM SKC=

USA.gov is the U.S. government's official web portal to all federal, state and local government web resources and services.